sensor_id;sensor_type;location;lat;lon;timestamp;pressure;altitude;pressure_sealevel;temperature;humidity
71165;BME280;58859;55.132;-1.586;2023-09-19T00:01:15;99422.59;;;15.30;100.00
71165;BME280;58859;55.132;-1.586;2023-09-19T00:03:45;99405.41;;;14.96;100.00
71165;BME280;58859;55.132;-1.586;2023-09-19T00:06:10;99428.00;;;15.48;100.00
71165;BME280;58859;55.132;-1.586;2023-09-19T00:08:38;99417.00;;;15.26;100.00
71165;BME280;58859;55.132;-1.586;2023-09-19T00:11:03;99418.25;;;15.11;100.00
71165;BME280;58859;55.132;-1.586;2023-09-19T00:13:32;99417.50;;;15.04;100.00
71165;BME280;58859;55.132;-1.586;2023-09-19T00:15:59;99427.72;;;15.63;100.00
71165;BME280;58859;55.132;-1.586;2023-09-19T00:18:25;99423.78;;;15.40;100.00
71165;BME280;58859;55.132;-1.586;2023-09-19T00:21:00;99416.59;;;14.65;100.00
71165;BME280;58859;55.132;-1.586;2023-09-19T00:23:26;99422.09;;;15.08;100.00
71165;BME280;58859;55.132;-1.586;2023-09-19T00:25:53;99428.66;;;14.73;100.00
71165;BME280;58859;55.132;-1.586;2023-09-19T00:28:22;99435.53;;;14.61;100.00
71165;BME280;58859;55.132;-1.586;2023-09-19T00:30:48;99421.38;;;16.51;100.00
71165;BME280;58859;55.132;-1.586;2023-09-19T00:33:16;99399.94;;;15.04;100.00
71165;BME280;58859;55.132;-1.586;2023-09-19T00:35:54;99413.53;;;14.81;100.00
71165;BME280;58859;55.132;-1.586;2023-09-19T00:38:21;99416.34;;;15.37;100.00
71165;BME280;58859;55.132;-1.586;2023-09-19T00:40:50;99409.72;;;14.84;100.00
71165;BME280;58859;55.132;-1.586;2023-09-19T00:43:19;99406.69;;;15.31;100.00
71165;BME280;58859;55.132;-1.586;2023-09-19T00:45:48;99411.75;;;15.26;100.00
71165;BME280;58859;55.132;-1.586;2023-09-19T00:48:15;99402.28;;;15.25;100.00
71165;BME280;58859;55.132;-1.586;2023-09-19T00:50:43;99402.59;;;16.29;100.00
71165;BME280;58859;55.132;-1.586;2023-09-19T00:53:09;99398.84;;;16.19;100.00
71165;BME280;58859;55.132;-1.586;2023-09-19T00:55:39;99399.56;;;15.45;100.00
71165;BME280;58859;55.132;-1.586;2023-09-19T00:58:07;99395.84;;;15.21;100.00
71165;BME280;58859;55.132;-1.586;2023-09-19T01:00:33;99402.34;;;15.57;100.00
71165;BME280;58859;55.132;-1.586;2023-09-19T01:03:00;99396.59;;;15.73;100.00
71165;BME280;58859;55.132;-1.586;2023-09-19T01:05:27;99401.97;;;16.34;100.00
71165;BME280;58859;55.132;-1.586;2023-09-19T01:07:52;99395.81;;;15.72;100.00
71165;BME280;58859;55.132;-1.586;2023-09-19T01:10:19;99402.06;;;14.76;100.00
71165;BME280;58859;55.132;-1.586;2023-09-19T01:13:10;99395.34;;;15.00;100.00
71165;BME280;58859;55.132;-1.586;2023-09-19T01:15:47;99401.66;;;15.30;100.00
71165;BME280;58859;55.132;-1.586;2023-09-19T01:21:24;99393.06;;;15.61;100.00
71165;BME280;58859;55.132;-1.586;2023-09-19T01:29:49;99405.78;;;13.96;100.00
71165;BME280;58859;55.132;-1.586;2023-09-19T01:32:19;99411.38;;;15.23;100.00
71165;BME280;58859;55.132;-1.586;2023-09-19T01:37:19;99400.50;;;15.13;100.00
71165;BME280;58859;55.132;-1.586;2023-09-19T01:39:50;99388.56;;;15.92;100.00
71165;BME280;58859;55.132;-1.586;2023-09-19T01:42:43;99399.19;;;16.04;100.00
71165;BME280;58859;55.132;-1.586;2023-09-19T01:45:12;99396.69;;;15.15;100.00
71165;BME280;58859;55.132;-1.586;2023-09-19T01:47:45;99396.91;;;15.07;100.00
71165;BME280;58859;55.132;-1.586;2023-09-19T01:50:20;99388.69;;;15.79;100.00
71165;BME280;58859;55.132;-1.586;2023-09-19T01:53:02;99376.91;;;15.26;100.00
71165;BME280;58859;55.132;-1.586;2023-09-19T01:55:30;99375.56;;;15.10;100.00
71165;BME280;58859;55.132;-1.586;2023-09-19T01:58:01;99377.09;;;15.24;100.00
71165;BME280;58859;55.132;-1.586;2023-09-19T02:00:33;99347.06;;;15.27;100.00
71165;BME280;58859;55.132;-1.586;2023-09-19T02:02:59;99389.22;;;15.63;100.00
71165;BME280;58859;55.132;-1.586;2023-09-19T02:05:25;99378.41;;;16.27;100.00
71165;BME280;58859;55.132;-1.586;2023-09-19T02:07:51;99378.97;;;16.29;100.00
71165;BME280;58859;55.132;-1.586;2023-09-19T02:10:18;99371.91;;;16.73;100.00
71165;BME280;58859;55.132;-1.586;2023-09-19T02:12:44;99366.63;;;16.36;100.00
71165;BME280;58859;55.132;-1.586;2023-09-19T02:15:10;99360.06;;;16.45;100.00
71165;BME280;58859;55.132;-1.586;2023-09-19T02:17:36;99369.09;;;15.82;100.00
71165;BME280;58859;55.132;-1.586;2023-09-19T02:20:01;99356.75;;;15.89;100.00
71165;BME280;58859;55.132;-1.586;2023-09-19T02:22:27;99359.88;;;16.22;100.00
71165;BME280;58859;55.132;-1.586;2023-09-19T02:24:53;99349.66;;;15.89;100.00
71165;BME280;58859;55.132;-1.586;2023-09-19T02:27:19;99350.91;;;16.54;100.00
71165;BME280;58859;55.132;-1.586;2023-09-19T02:29:44;99339.94;;;15.96;100.00
71165;BME280;58859;55.132;-1.586;2023-09-19T02:32:10;99331.44;;;16.62;100.00
71165;BME280;58859;55.132;-1.586;2023-09-19T02:34:36;99341.16;;;17.09;100.00
71165;BME280;58859;55.132;-1.586;2023-09-19T02:37:05;99337.38;;;16.51;100.00
71165;BME280;58859;55.132;-1.586;2023-09-19T02:39:31;99313.94;;;16.74;100.00
71165;BME280;58859;55.132;-1.586;2023-09-19T02:41:57;99323.97;;;16.23;100.00
71165;BME280;58859;55.132;-1.586;2023-09-19T02:44:22;99315.31;;;15.73;100.00
71165;BME280;58859;55.132;-1.586;2023-09-19T02:46:49;99308.28;;;16.89;100.00
71165;BME280;58859;55.132;-1.586;2023-09-19T02:49:14;99314.16;;;17.32;100.00
71165;BME280;58859;55.132;-1.586;2023-09-19T02:51:40;99313.19;;;16.67;100.00
71165;BME280;58859;55.132;-1.586;2023-09-19T02:54:06;99304.47;;;15.69;100.00
71165;BME280;58859;55.132;-1.586;2023-09-19T02:56:31;99307.72;;;15.89;100.00
71165;BME280;58859;55.132;-1.586;2023-09-19T02:58:57;99302.44;;;16.57;100.00
71165;BME280;58859;55.132;-1.586;2023-09-19T03:01:23;99307.03;;;16.19;100.00
71165;BME280;58859;55.132;-1.586;2023-09-19T03:03:48;99298.16;;;15.77;100.00
71165;BME280;58859;55.132;-1.586;2023-09-19T03:06:14;99288.38;;;16.27;100.00
71165;BME280;58859;55.132;-1.586;2023-09-19T03:08:41;99293.72;;;16.20;100.00
71165;BME280;58859;55.132;-1.586;2023-09-19T03:11:10;99292.16;;;15.70;100.00
71165;BME280;58859;55.132;-1.586;2023-09-19T03:13:37;99296.06;;;15.85;100.00
71165;BME280;58859;55.132;-1.586;2023-09-19T03:16:06;99287.13;;;16.29;100.00
71165;BME280;58859;55.132;-1.586;2023-09-19T03:18:34;99288.75;;;16.30;100.00
71165;BME280;58859;55.132;-1.586;2023-09-19T03:20:59;99283.88;;;15.73;100.00
71165;BME280;58859;55.132;-1.586;2023-09-19T03:23:26;99283.09;;;15.90;100.00
71165;BME280;58859;55.132;-1.586;2023-09-19T03:25:51;99283.44;;;16.73;100.00
71165;BME280;58859;55.132;-1.586;2023-09-19T03:28:17;99282.81;;;16.59;100.00
71165;BME280;58859;55.132;-1.586;2023-09-19T03:30:43;99285.00;;;16.62;100.00
71165;BME280;58859;55.132;-1.586;2023-09-19T03:33:09;99285.13;;;16.97;100.00
71165;BME280;58859;55.132;-1.586;2023-09-19T03:35:37;99277.91;;;16.08;100.00
71165;BME280;58859;55.132;-1.586;2023-09-19T03:38:03;99271.84;;;16.26;100.00
71165;BME280;58859;55.132;-1.586;2023-09-19T03:40:29;99267.16;;;15.18;100.00
71165;BME280;58859;55.132;-1.586;2023-09-19T03:42:54;99262.59;;;14.62;100.00
71165;BME280;58859;55.132;-1.586;2023-09-19T03:45:20;99250.56;;;14.55;100.00
71165;BME280;58859;55.132;-1.586;2023-09-19T03:47:45;99260.19;;;14.98;100.00
71165;BME280;58859;55.132;-1.586;2023-09-19T03:50:13;99261.38;;;15.03;100.00
71165;BME280;58859;55.132;-1.586;2023-09-19T03:52:43;99266.19;;;15.37;100.00
71165;BME280;58859;55.132;-1.586;2023-09-19T03:55:09;99266.59;;;15.40;100.00
71165;BME280;58859;55.132;-1.586;2023-09-19T03:57:35;99266.84;;;15.32;100.00
71165;BME280;58859;55.132;-1.586;2023-09-19T04:00:01;99262.88;;;14.48;100.00
71165;BME280;58859;55.132;-1.586;2023-09-19T04:02:27;99262.31;;;14.26;100.00
71165;BME280;58859;55.132;-1.586;2023-09-19T04:04:58;99257.31;;;14.18;100.00
71165;BME280;58859;55.132;-1.586;2023-09-19T04:07:24;99257.44;;;14.56;100.00
71165;BME280;58859;55.132;-1.586;2023-09-19T04:09:51;99250.25;;;14.38;100.00
71165;BME280;58859;55.132;-1.586;2023-09-19T04:12:18;99247.63;;;14.25;100.00
71165;BME280;58859;55.132;-1.586;2023-09-19T04:14:44;99230.94;;;14.32;100.00
71165;BME280;58859;55.132;-1.586;2023-09-19T04:17:10;99230.19;;;14.12;100.00
71165;BME280;58859;55.132;-1.586;2023-09-19T04:19:36;99222.69;;;14.35;100.00
71165;BME280;58859;55.132;-1.586;2023-09-19T04:22:02;99221.81;;;13.77;100.00
71165;BME280;58859;55.132;-1.586;2023-09-19T04:24:28;99210.19;;;13.41;100.00
71165;BME280;58859;55.132;-1.586;2023-09-19T04:26:53;99211.38;;;13.71;100.00
71165;BME280;58859;55.132;-1.586;2023-09-19T04:29:18;99208.72;;;13.91;100.00
71165;BME280;58859;55.132;-1.586;2023-09-19T04:31:45;99196.78;;;14.08;100.00
71165;BME280;58859;55.132;-1.586;2023-09-19T04:34:11;99208.03;;;14.72;100.00
71165;BME280;58859;55.132;-1.586;2023-09-19T04:36:43;99201.16;;;15.27;100.00
71165;BME280;58859;55.132;-1.586;2023-09-19T04:39:08;99204.44;;;15.23;100.00
71165;BME280;58859;55.132;-1.586;2023-09-19T04:41:35;99204.31;;;16.70;100.00
71165;BME280;58859;55.132;-1.586;2023-09-19T04:44:04;99191.13;;;16.88;100.00
71165;BME280;58859;55.132;-1.586;2023-09-19T04:46:30;99191.09;;;16.10;100.00
71165;BME280;58859;55.132;-1.586;2023-09-19T04:48:55;99189.81;;;16.19;100.00
71165;BME280;58859;55.132;-1.586;2023-09-19T04:51:21;99185.09;;;16.99;100.00
71165;BME280;58859;55.132;-1.586;2023-09-19T04:53:46;99181.63;;;17.28;100.00
71165;BME280;58859;55.132;-1.586;2023-09-19T04:56:13;99183.78;;;16.48;100.00
71165;BME280;58859;55.132;-1.586;2023-09-19T04:58:38;99181.81;;;15.78;100.00
71165;BME280;58859;55.132;-1.586;2023-09-19T05:01:04;99180.50;;;16.35;100.00
71165;BME280;58859;55.132;-1.586;2023-09-19T05:03:29;99188.13;;;15.88;100.00
71165;BME280;58859;55.132;-1.586;2023-09-19T05:05:55;99176.63;;;16.55;100.00
71165;BME280;58859;55.132;-1.586;2023-09-19T05:08:20;99189.97;;;15.20;100.00
71165;BME280;58859;55.132;-1.586;2023-09-19T05:10:47;99182.22;;;16.77;100.00
71165;BME280;58859;55.132;-1.586;2023-09-19T05:13:12;99185.28;;;16.08;100.00
71165;BME280;58859;55.132;-1.586;2023-09-19T05:15:38;99181.63;;;15.73;100.00
71165;BME280;58859;55.132;-1.586;2023-09-19T05:18:04;99192.59;;;16.06;100.00
71165;BME280;58859;55.132;-1.586;2023-09-19T05:20:32;99181.66;;;14.67;100.00
71165;BME280;58859;55.132;-1.586;2023-09-19T05:23:06;99176.47;;;16.50;100.00
71165;BME280;58859;55.132;-1.586;2023-09-19T05:25:39;99172.84;;;15.85;100.00
71165;BME280;58859;55.132;-1.586;2023-09-19T05:28:10;99172.00;;;16.21;100.00
71165;BME280;58859;55.132;-1.586;2023-09-19T05:30:40;99177.28;;;16.03;100.00
71165;BME280;58859;55.132;-1.586;2023-09-19T05:33:06;99174.72;;;15.78;100.00
71165;BME280;58859;55.132;-1.586;2023-09-19T05:35:32;99164.13;;;16.39;100.00
71165;BME280;58859;55.132;-1.586;2023-09-19T05:37:58;99156.09;;;15.86;100.00
71165;BME280;58859;55.132;-1.586;2023-09-19T05:40:25;99154.56;;;15.97;100.00
71165;BME280;58859;55.132;-1.586;2023-09-19T05:42:51;99149.28;;;15.18;100.00
71165;BME280;58859;55.132;-1.586;2023-09-19T05:45:17;99147.13;;;14.83;100.00
71165;BME280;58859;55.132;-1.586;2023-09-19T05:47:49;99137.59;;;15.38;100.00
71165;BME280;58859;55.132;-1.586;2023-09-19T05:50:15;99144.13;;;15.90;100.00
71165;BME280;58859;55.132;-1.586;2023-09-19T05:52:42;99146.66;;;16.63;100.00
71165;BME280;58859;55.132;-1.586;2023-09-19T05:55:09;99137.16;;;16.02;100.00
71165;BME280;58859;55.132;-1.586;2023-09-19T05:57:36;99139.34;;;15.26;100.00
71165;BME280;58859;55.132;-1.586;2023-09-19T06:00:05;99134.19;;;14.64;100.00
71165;BME280;58859;55.132;-1.586;2023-09-19T06:02:36;99128.59;;;14.85;100.00
71165;BME280;58859;55.132;-1.586;2023-09-19T06:05:01;99125.09;;;14.98;100.00
71165;BME280;58859;55.132;-1.586;2023-09-19T06:07:27;99116.31;;;14.85;100.00
71165;BME280;58859;55.132;-1.586;2023-09-19T06:10:01;99117.97;;;14.80;100.00
71165;BME280;58859;55.132;-1.586;2023-09-19T06:12:27;99110.81;;;14.37;100.00
71165;BME280;58859;55.132;-1.586;2023-09-19T06:14:53;99104.78;;;14.30;100.00
71165;BME280;58859;55.132;-1.586;2023-09-19T06:17:19;99111.63;;;14.94;100.00
71165;BME280;58859;55.132;-1.586;2023-09-19T06:19:45;99113.00;;;14.41;100.00
71165;BME280;58859;55.132;-1.586;2023-09-19T06:22:15;99112.63;;;14.30;100.00
71165;BME280;58859;55.132;-1.586;2023-09-19T06:24:43;99108.84;;;13.82;100.00
71165;BME280;58859;55.132;-1.586;2023-09-19T06:27:08;99125.22;;;14.02;100.00
71165;BME280;58859;55.132;-1.586;2023-09-19T06:29:34;99119.75;;;14.55;100.00
71165;BME280;58859;55.132;-1.586;2023-09-19T06:31:59;99113.63;;;14.36;100.00
71165;BME280;58859;55.132;-1.586;2023-09-19T06:34:24;99108.84;;;13.82;100.00
71165;BME280;58859;55.132;-1.586;2023-09-19T06:36:51;99069.22;;;13.85;100.00
71165;BME280;58859;55.132;-1.586;2023-09-19T06:39:17;99090.59;;;13.69;100.00
71165;BME280;58859;55.132;-1.586;2023-09-19T06:41:42;99086.16;;;13.76;100.00
71165;BME280;58859;55.132;-1.586;2023-09-19T06:44:07;99090.13;;;13.85;100.00
71165;BME280;58859;55.132;-1.586;2023-09-19T06:46:34;99070.59;;;14.25;100.00
71165;BME280;58859;55.132;-1.586;2023-09-19T06:49:01;99069.63;;;14.20;100.00
71165;BME280;58859;55.132;-1.586;2023-09-19T06:51:31;99071.09;;;14.16;100.00
71165;BME280;58859;55.132;-1.586;2023-09-19T06:53:56;99059.16;;;13.89;100.00
71165;BME280;58859;55.132;-1.586;2023-09-19T06:56:23;99067.69;;;14.09;100.00
71165;BME280;58859;55.132;-1.586;2023-09-19T06:58:50;99064.84;;;13.79;100.00
71165;BME280;58859;55.132;-1.586;2023-09-19T07:01:16;99081.19;;;13.99;100.00
71165;BME280;58859;55.132;-1.586;2023-09-19T07:03:41;99072.78;;;13.97;100.00
71165;BME280;58859;55.132;-1.586;2023-09-19T07:06:10;99076.66;;;14.32;100.00
71165;BME280;58859;55.132;-1.586;2023-09-19T07:08:36;99077.63;;;13.36;100.00
71165;BME280;58859;55.132;-1.586;2023-09-19T07:11:03;99068.44;;;13.78;100.00
71165;BME280;58859;55.132;-1.586;2023-09-19T07:13:31;99058.22;;;14.08;100.00
71165;BME280;58859;55.132;-1.586;2023-09-19T07:15:58;99052.78;;;13.78;100.00
71165;BME280;58859;55.132;-1.586;2023-09-19T07:18:24;99030.66;;;13.80;100.00
71165;BME280;58859;55.132;-1.586;2023-09-19T07:20:50;99033.06;;;13.82;100.00
71165;BME280;58859;55.132;-1.586;2023-09-19T07:23:17;99034.91;;;13.75;100.00
71165;BME280;58859;55.132;-1.586;2023-09-19T07:25:44;99030.75;;;13.99;100.00
71165;BME280;58859;55.132;-1.586;2023-09-19T07:28:09;99021.09;;;14.30;100.00
71165;BME280;58859;55.132;-1.586;2023-09-19T07:30:37;99012.38;;;14.12;100.00
71165;BME280;58859;55.132;-1.586;2023-09-19T07:33:04;99006.56;;;14.10;100.00
71165;BME280;58859;55.132;-1.586;2023-09-19T07:35:31;99000.63;;;13.96;100.00
71165;BME280;58859;55.132;-1.586;2023-09-19T07:37:56;98990.56;;;14.24;100.00
71165;BME280;58859;55.132;-1.586;2023-09-19T07:40:23;98979.22;;;13.74;100.00
71165;BME280;58859;55.132;-1.586;2023-09-19T07:42:56;98977.00;;;14.41;100.00
71165;BME280;58859;55.132;-1.586;2023-09-19T07:45:22;98974.69;;;14.19;100.00
71165;BME280;58859;55.132;-1.586;2023-09-19T07:47:49;98970.31;;;14.13;100.00
71165;BME280;58859;55.132;-1.586;2023-09-19T07:50:18;98961.69;;;14.62;100.00
71165;BME280;58859;55.132;-1.586;2023-09-19T07:52:45;98951.16;;;14.19;100.00
71165;BME280;58859;55.132;-1.586;2023-09-19T07:55:11;98952.94;;;14.75;100.00
71165;BME280;58859;55.132;-1.586;2023-09-19T07:57:37;98947.84;;;14.06;100.00
71165;BME280;58859;55.132;-1.586;2023-09-19T08:00:03;98944.13;;;14.20;100.00
71165;BME280;58859;55.132;-1.586;2023-09-19T08:02:39;98937.03;;;14.27;100.00
71165;BME280;58859;55.132;-1.586;2023-09-19T08:05:06;98941.03;;;14.54;100.00
71165;BME280;58859;55.132;-1.586;2023-09-19T08:07:35;98928.41;;;14.26;100.00
71165;BME280;58859;55.132;-1.586;2023-09-19T08:10:02;98917.78;;;14.46;100.00
71165;BME280;58859;55.132;-1.586;2023-09-19T08:12:27;98919.75;;;14.51;100.00
71165;BME280;58859;55.132;-1.586;2023-09-19T08:14:53;98918.25;;;14.36;100.00
71165;BME280;58859;55.132;-1.586;2023-09-19T08:17:18;98921.38;;;14.70;100.00
71165;BME280;58859;55.132;-1.586;2023-09-19T08:19:45;98911.78;;;14.14;100.00
71165;BME280;58859;55.132;-1.586;2023-09-19T08:22:11;98905.47;;;14.89;100.00
71165;BME280;58859;55.132;-1.586;2023-09-19T08:24:37;98901.09;;;14.47;100.00
71165;BME280;58859;55.132;-1.586;2023-09-19T08:27:03;98908.31;;;14.70;100.00
71165;BME280;58859;55.132;-1.586;2023-09-19T08:29:30;98896.09;;;15.48;100.00
71165;BME280;58859;55.132;-1.586;2023-09-19T08:31:57;98899.28;;;14.66;100.00
71165;BME280;58859;55.132;-1.586;2023-09-19T08:34:23;98906.19;;;14.78;100.00
71165;BME280;58859;55.132;-1.586;2023-09-19T08:36:53;98899.69;;;14.45;100.00
71165;BME280;58859;55.132;-1.586;2023-09-19T08:39:23;98892.38;;;14.04;100.00
71165;BME280;58859;55.132;-1.586;2023-09-19T08:41:48;98868.63;;;13.56;100.00
71165;BME280;58859;55.132;-1.586;2023-09-19T08:44:14;98878.69;;;13.77;100.00
71165;BME280;58859;55.132;-1.586;2023-09-19T08:46:41;98871.56;;;14.94;100.00
71165;BME280;58859;55.132;-1.586;2023-09-19T08:52:22;98854.28;;;15.23;100.00
71165;BME280;58859;55.132;-1.586;2023-09-19T08:54:52;98834.63;;;15.44;100.00
71165;BME280;58859;55.132;-1.586;2023-09-19T08:57:19;98827.53;;;14.73;100.00
71165;BME280;58859;55.132;-1.586;2023-09-19T08:59:48;98824.63;;;15.11;100.00
71165;BME280;58859;55.132;-1.586;2023-09-19T09:02:16;98820.31;;;14.87;100.00
71165;BME280;58859;55.132;-1.586;2023-09-19T09:04:45;98816.97;;;14.98;100.00
71165;BME280;58859;55.132;-1.586;2023-09-19T09:07:11;98798.97;;;15.31;100.00
71165;BME280;58859;55.132;-1.586;2023-09-19T09:09:44;98802.06;;;15.10;100.00
71165;BME280;58859;55.132;-1.586;2023-09-19T09:12:14;98800.53;;;14.91;100.00
71165;BME280;58859;55.132;-1.586;2023-09-19T09:14:44;98798.75;;;15.03;100.00
71165;BME280;58859;55.132;-1.586;2023-09-19T09:17:11;98797.13;;;16.20;100.00
71165;BME280;58859;55.132;-1.586;2023-09-19T09:19:37;98802.78;;;15.59;100.00
71165;BME280;58859;55.132;-1.586;2023-09-19T09:22:10;98786.06;;;15.30;100.00
71165;BME280;58859;55.132;-1.586;2023-09-19T09:24:36;98799.41;;;14.98;100.00
71165;BME280;58859;55.132;-1.586;2023-09-19T09:27:06;98761.56;;;15.66;100.00
71165;BME280;58859;55.132;-1.586;2023-09-19T09:29:47;98790.41;;;15.89;100.00
71165;BME280;58859;55.132;-1.586;2023-09-19T09:34:58;98755.63;;;15.82;100.00
71165;BME280;58859;55.132;-1.586;2023-09-19T09:37:24;98785.28;;;15.82;100.00
71165;BME280;58859;55.132;-1.586;2023-09-19T09:39:56;98800.94;;;16.63;100.00
71165;BME280;58859;55.132;-1.586;2023-09-19T09:42:36;98792.19;;;17.59;100.00
71165;BME280;58859;55.132;-1.586;2023-09-19T09:45:24;98788.59;;;17.65;100.00
71165;BME280;58859;55.132;-1.586;2023-09-19T09:47:59;98784.94;;;16.02;100.00
71165;BME280;58859;55.132;-1.586;2023-09-19T09:50:36;98782.25;;;16.60;100.00
71165;BME280;58859;55.132;-1.586;2023-09-19T09:53:39;98761.25;;;17.33;100.00
71165;BME280;58859;55.132;-1.586;2023-09-19T09:56:06;98762.41;;;16.81;100.00
71165;BME280;58859;55.132;-1.586;2023-09-19T09:58:50;98748.50;;;17.08;100.00
71165;BME280;58859;55.132;-1.586;2023-09-19T10:01:20;98749.06;;;18.15;100.00
71165;BME280;58859;55.132;-1.586;2023-09-19T10:03:46;98755.69;;;16.33;100.00
71165;BME280;58859;55.132;-1.586;2023-09-19T10:06:17;98758.72;;;15.90;100.00
71165;BME280;58859;55.132;-1.586;2023-09-19T10:11:44;98757.81;;;17.49;100.00
71165;BME280;58859;55.132;-1.586;2023-09-19T10:14:12;98761.75;;;17.63;100.00
71165;BME280;58859;55.132;-1.586;2023-09-19T10:16:45;98751.78;;;17.82;100.00
71165;BME280;58859;55.132;-1.586;2023-09-19T10:19:25;98754.09;;;17.45;100.00
71165;BME280;58859;55.132;-1.586;2023-09-19T10:21:55;98758.06;;;17.31;100.00
71165;BME280;58859;55.132;-1.586;2023-09-19T10:24:22;98766.53;;;18.43;100.00
71165;BME280;58859;55.132;-1.586;2023-09-19T10:26:50;98746.75;;;18.84;100.00
71165;BME280;58859;55.132;-1.586;2023-09-19T10:29:17;98769.50;;;18.08;100.00
71165;BME280;58859;55.132;-1.586;2023-09-19T10:31:44;98773.53;;;17.77;100.00
71165;BME280;58859;55.132;-1.586;2023-09-19T10:34:14;98770.09;;;18.54;100.00
71165;BME280;58859;55.132;-1.586;2023-09-19T10:36:44;98788.97;;;18.29;100.00
71165;BME280;58859;55.132;-1.586;2023-09-19T10:39:11;98766.75;;;18.58;100.00
71165;BME280;58859;55.132;-1.586;2023-09-19T10:41:39;98763.59;;;19.10;100.00
71165;BME280;58859;55.132;-1.586;2023-09-19T10:44:04;98740.50;;;19.22;100.00
71165;BME280;58859;55.132;-1.586;2023-09-19T10:46:32;98755.84;;;19.30;100.00
71165;BME280;58859;55.132;-1.586;2023-09-19T10:49:01;98753.00;;;19.36;100.00
71165;BME280;58859;55.132;-1.586;2023-09-19T10:51:38;98740.75;;;18.45;100.00
71165;BME280;58859;55.132;-1.586;2023-09-19T10:54:08;98754.56;;;18.79;100.00
71165;BME280;58859;55.132;-1.586;2023-09-19T10:56:43;98751.69;;;17.44;100.00
71165;BME280;58859;55.132;-1.586;2023-09-19T10:59:13;98748.28;;;17.60;100.00
71165;BME280;58859;55.132;-1.586;2023-09-19T11:04:26;98747.84;;;18.01;100.00
71165;BME280;58859;55.132;-1.586;2023-09-19T11:07:03;98741.13;;;19.34;100.00
71165;BME280;58859;55.132;-1.586;2023-09-19T11:09:55;98754.47;;;19.22;100.00
71165;BME280;58859;55.132;-1.586;2023-09-19T11:15:08;98769.63;;;19.64;100.00
71165;BME280;58859;55.132;-1.586;2023-09-19T11:17:39;98759.19;;;20.26;100.00
71165;BME280;58859;55.132;-1.586;2023-09-19T11:33:27;98809.50;;;19.40;100.00
71165;BME280;58859;55.132;-1.586;2023-09-19T11:36:09;98808.25;;;20.22;100.00
71165;BME280;58859;55.132;-1.586;2023-09-19T11:46:20;98817.72;;;19.44;100.00
71165;BME280;58859;55.132;-1.586;2023-09-19T11:48:50;98831.66;;;19.18;100.00
71165;BME280;58859;55.132;-1.586;2023-09-19T11:51:20;98831.22;;;19.26;100.00
71165;BME280;58859;55.132;-1.586;2023-09-19T11:53:58;98828.88;;;19.56;100.00
71165;BME280;58859;55.132;-1.586;2023-09-19T11:56:27;98835.38;;;18.95;100.00
71165;BME280;58859;55.132;-1.586;2023-09-19T11:58:56;98840.41;;;19.23;100.00
71165;BME280;58859;55.132;-1.586;2023-09-19T12:01:32;98838.94;;;18.24;100.00
71165;BME280;58859;55.132;-1.586;2023-09-19T12:04:03;98845.16;;;19.00;100.00
71165;BME280;58859;55.132;-1.586;2023-09-19T12:06:30;98849.31;;;17.97;100.00
71165;BME280;58859;55.132;-1.586;2023-09-19T12:08:57;98846.72;;;18.74;100.00
71165;BME280;58859;55.132;-1.586;2023-09-19T12:11:28;98841.00;;;19.30;100.00
71165;BME280;58859;55.132;-1.586;2023-09-19T12:13:54;98842.41;;;20.33;100.00
71165;BME280;58859;55.132;-1.586;2023-09-19T12:16:22;98831.44;;;20.15;100.00
71165;BME280;58859;55.132;-1.586;2023-09-19T12:18:48;98836.09;;;19.66;100.00
71165;BME280;58859;55.132;-1.586;2023-09-19T12:21:31;98830.63;;;19.72;100.00
71165;BME280;58859;55.132;-1.586;2023-09-19T12:24:05;98818.78;;;20.17;100.00
71165;BME280;58859;55.132;-1.586;2023-09-19T12:26:38;98829.84;;;19.77;100.00
71165;BME280;58859;55.132;-1.586;2023-09-19T12:29:11;98834.03;;;19.73;100.00
71165;BME280;58859;55.132;-1.586;2023-09-19T12:31:56;98835.28;;;19.97;100.00
71165;BME280;58859;55.132;-1.586;2023-09-19T12:34:32;98838.34;;;19.52;100.00
71165;BME280;58859;55.132;-1.586;2023-09-19T12:37:05;98846.63;;;20.34;100.00
71165;BME280;58859;55.132;-1.586;2023-09-19T12:39:39;98845.97;;;19.80;100.00
71165;BME280;58859;55.132;-1.586;2023-09-19T12:42:08;98834.00;;;20.41;100.00
71165;BME280;58859;55.132;-1.586;2023-09-19T12:44:37;98832.69;;;19.70;100.00
71165;BME280;58859;55.132;-1.586;2023-09-19T12:47:16;98839.53;;;19.39;100.00
71165;BME280;58859;55.132;-1.586;2023-09-19T12:50:07;98852.88;;;20.23;100.00
71165;BME280;58859;55.132;-1.586;2023-09-19T12:52:37;98855.47;;;19.81;100.00
71165;BME280;58859;55.132;-1.586;2023-09-19T12:55:02;98844.81;;;20.03;100.00
71165;BME280;58859;55.132;-1.586;2023-09-19T12:57:28;98841.19;;;19.77;100.00
71165;BME280;58859;55.132;-1.586;2023-09-19T12:59:57;98846.53;;;20.24;100.00
71165;BME280;58859;55.132;-1.586;2023-09-19T13:02:22;98852.09;;;20.23;100.00
71165;BME280;58859;55.132;-1.586;2023-09-19T13:04:54;98854.75;;;19.91;100.00
71165;BME280;58859;55.132;-1.586;2023-09-19T13:07:42;98859.03;;;19.97;100.00
71165;BME280;58859;55.132;-1.586;2023-09-19T13:10:09;98859.78;;;19.61;100.00
71165;BME280;58859;55.132;-1.586;2023-09-19T13:12:37;98858.69;;;19.88;100.00
71165;BME280;58859;55.132;-1.586;2023-09-19T13:15:10;98858.53;;;20.00;100.00
71165;BME280;58859;55.132;-1.586;2023-09-19T13:17:45;98863.97;;;19.57;100.00
71165;BME280;58859;55.132;-1.586;2023-09-19T13:20:31;98861.16;;;19.68;100.00
71165;BME280;58859;55.132;-1.586;2023-09-19T13:23:04;98863.09;;;19.78;100.00
71165;BME280;58859;55.132;-1.586;2023-09-19T13:25:35;98851.31;;;19.32;100.00
71165;BME280;58859;55.132;-1.586;2023-09-19T13:28:01;98857.50;;;19.69;100.00
71165;BME280;58859;55.132;-1.586;2023-09-19T13:30:29;98854.69;;;19.81;100.00
71165;BME280;58859;55.132;-1.586;2023-09-19T13:33:06;98863.13;;;19.03;100.00
71165;BME280;58859;55.132;-1.586;2023-09-19T13:35:32;98859.47;;;19.04;100.00